createdAt,value
2023-02-09T00:01:21.764Z,6.31
2023-02-09T00:03:48.696Z,6.29
2023-02-09T00:06:17.038Z,6.28
2023-02-09T00:08:43.990Z,6.25
2023-02-09T00:11:13.333Z,6.30
2023-02-09T00:13:40.240Z,6.34
2023-02-09T00:16:07.346Z,6.33
2023-02-09T00:18:34.558Z,6.30
2023-02-09T00:21:02.915Z,6.29
2023-02-09T00:23:30.903Z,6.27
2023-02-09T00:25:59.859Z,6.22
2023-02-09T00:28:26.837Z,6.22
2023-02-09T00:30:53.858Z,6.23
2023-02-09T00:33:20.951Z,6.24
2023-02-09T00:35:48.166Z,6.22
2023-02-09T00:38:15.699Z,6.16
2023-02-09T00:40:42.720Z,6.18
2023-02-09T00:43:10.650Z,6.18
2023-02-09T00:45:37.712Z,6.17
2023-02-09T00:48:04.707Z,6.20
2023-02-09T00:50:31.599Z,6.19
2023-02-09T00:52:58.659Z,6.17
2023-02-09T00:55:25.580Z,6.19
2023-02-09T00:57:52.569Z,6.18
2023-02-09T01:00:20.827Z,6.17
2023-02-09T01:02:47.923Z,6.18
2023-02-09T01:05:14.801Z,6.18
2023-02-09T01:07:41.833Z,6.19
2023-02-09T01:10:09.111Z,6.16
2023-02-09T01:12:38.304Z,6.14
2023-02-09T01:15:05.258Z,6.14
2023-02-09T01:17:32.182Z,6.13
2023-02-09T01:19:59.009Z,6.16
2023-02-09T01:22:26.169Z,6.18
2023-02-09T01:24:53.007Z,6.19
2023-02-09T01:27:19.900Z,6.20
2023-02-09T01:29:46.760Z,6.20
2023-02-09T01:32:13.754Z,6.20
2023-02-09T01:34:40.757Z,6.19
2023-02-09T01:37:07.700Z,6.15
2023-02-09T01:39:34.563Z,6.17
2023-02-09T01:42:01.547Z,6.17
2023-02-09T01:44:29.751Z,6.17
2023-02-09T01:46:56.614Z,6.16
2023-02-09T01:49:26.639Z,6.12
2023-02-09T01:51:58.014Z,6.10
2023-02-09T01:54:26.452Z,6.07
2023-02-09T01:56:57.690Z,6.07
2023-02-09T01:59:24.798Z,6.08
2023-02-09T02:01:52.583Z,6.06
2023-02-09T02:04:19.980Z,6.06
2023-02-09T02:06:46.979Z,6.03
2023-02-09T02:09:15.171Z,6.00
2023-02-09T02:11:44.244Z,6.01
2023-02-09T02:14:14.364Z,5.99
2023-02-09T02:16:42.736Z,5.99
2023-02-09T02:19:09.888Z,6.00
2023-02-09T02:21:38.311Z,6.06
2023-02-09T02:24:08.244Z,6.04
2023-02-09T02:26:36.549Z,6.04
2023-02-09T02:29:07.338Z,6.06
2023-02-09T02:31:35.598Z,6.10
2023-02-09T02:34:03.987Z,6.11
2023-02-09T02:36:34.449Z,6.15
2023-02-09T02:39:04.781Z,6.16
2023-02-09T02:41:51.914Z,6.22
2023-02-09T02:44:19.345Z,6.19
2023-02-09T02:46:48.963Z,6.17
2023-02-09T02:49:21.810Z,6.17
2023-02-09T02:51:50.309Z,6.16
2023-02-09T02:54:20.057Z,6.14
2023-02-09T02:56:51.035Z,6.16
2023-02-09T02:59:20.079Z,6.18
2023-02-09T03:01:52.261Z,6.17
2023-02-09T03:04:20.234Z,6.13
2023-02-09T03:06:47.129Z,6.10
2023-02-09T03:09:13.957Z,6.12
2023-02-09T03:11:42.744Z,6.11
2023-02-09T03:14:13.339Z,6.08
2023-02-09T03:16:40.640Z,6.05
2023-02-09T03:19:08.891Z,6.04
2023-02-09T03:21:36.282Z,6.03
2023-02-09T03:24:08.818Z,6.04
2023-02-09T03:26:40.325Z,6.04
2023-02-09T03:29:09.273Z,6.02
2023-02-09T03:31:36.443Z,6.01
2023-02-09T03:34:03.584Z,5.99
2023-02-09T03:36:33.211Z,5.95
2023-02-09T03:39:00.227Z,5.96
2023-02-09T03:41:27.110Z,5.96
2023-02-09T03:43:57.281Z,5.94
2023-02-09T03:46:24.223Z,5.91
2023-02-09T03:48:51.220Z,5.87
2023-02-09T03:51:18.380Z,5.84
2023-02-09T03:53:45.422Z,5.81
2023-02-09T03:56:12.407Z,5.80
2023-02-09T03:58:39.276Z,5.79
2023-02-09T04:01:08.311Z,5.80
2023-02-09T04:03:35.620Z,5.80
2023-02-09T04:06:02.627Z,5.79
2023-02-09T04:08:30.304Z,5.78
2023-02-09T04:10:57.841Z,5.77
2023-02-09T04:13:25.186Z,5.74
2023-02-09T04:15:52.640Z,5.73
2023-02-09T04:18:19.608Z,5.71
2023-02-09T04:20:47.112Z,5.67
2023-02-09T04:23:14.332Z,5.65
2023-02-09T04:25:41.193Z,5.66
2023-02-09T04:28:08.094Z,5.64
2023-02-09T04:30:35.099Z,5.63
2023-02-09T04:33:02.039Z,5.64
2023-02-09T04:35:28.930Z,5.65
2023-02-09T04:37:55.728Z,5.65
2023-02-09T04:40:22.646Z,5.64
2023-02-09T04:42:49.603Z,5.65
2023-02-09T04:45:16.604Z,5.66
2023-02-09T04:47:43.432Z,5.66
2023-02-09T04:50:10.924Z,5.70
2023-02-09T04:52:37.859Z,5.72
2023-02-09T04:55:05.027Z,5.75
2023-02-09T04:57:35.058Z,5.81
2023-02-09T05:00:01.892Z,5.86
2023-02-09T05:02:28.799Z,5.88
2023-02-09T05:04:55.586Z,5.88
2023-02-09T05:07:23.516Z,5.86
2023-02-09T05:09:50.389Z,5.86
2023-02-09T05:12:17.244Z,5.86
2023-02-09T05:14:44.157Z,5.87
2023-02-09T05:17:11.043Z,5.88
2023-02-09T05:19:38.009Z,5.90
2023-02-09T05:22:04.888Z,5.91
2023-02-09T05:24:31.748Z,5.91
2023-02-09T05:26:58.685Z,5.91
2023-02-09T05:29:25.544Z,5.94
2023-02-09T05:31:52.525Z,5.94
2023-02-09T05:34:19.439Z,5.91
2023-02-09T05:36:47.986Z,5.91
2023-02-09T05:39:14.810Z,5.92
2023-02-09T05:41:44.728Z,5.93
2023-02-09T05:44:11.776Z,5.92
2023-02-09T05:46:38.611Z,5.93
2023-02-09T05:49:05.402Z,5.93
2023-02-09T05:51:32.363Z,5.95
2023-02-09T05:53:59.185Z,5.96
2023-02-09T05:56:26.114Z,5.98
2023-02-09T05:58:52.980Z,5.99
2023-02-09T06:01:19.798Z,5.98
2023-02-09T06:03:46.801Z,5.98
2023-02-09T06:06:13.627Z,5.98
2023-02-09T06:08:40.575Z,6.01
2023-02-09T06:11:07.704Z,6.01
2023-02-09T06:13:34.648Z,6.02
2023-02-09T06:16:01.727Z,6.04
2023-02-09T06:18:28.551Z,6.06
2023-02-09T06:20:55.447Z,6.07
2023-02-09T06:23:22.332Z,6.07
2023-02-09T06:25:53.341Z,6.11
2023-02-09T06:28:20.767Z,6.11
2023-02-09T06:30:50.690Z,6.14
2023-02-09T06:33:18.425Z,6.17
2023-02-09T06:35:45.272Z,6.19
2023-02-09T06:38:12.639Z,6.22
2023-02-09T06:40:39.514Z,6.24
2023-02-09T06:43:06.467Z,6.24
2023-02-09T06:45:33.404Z,6.23
2023-02-09T06:48:00.301Z,6.26
2023-02-09T06:50:27.315Z,6.27
2023-02-09T06:52:54.336Z,6.30
2023-02-09T06:55:21.222Z,6.30
2023-02-09T06:57:48.161Z,6.31
2023-02-09T07:00:15.457Z,6.31
2023-02-09T07:02:43.408Z,6.32
2023-02-09T07:05:10.743Z,6.33
2023-02-09T07:07:38.191Z,6.35
2023-02-09T07:10:06.061Z,6.38
2023-02-09T07:12:33.480Z,6.41
2023-02-09T07:15:01.252Z,6.41
2023-02-09T07:17:30.247Z,6.42
2023-02-09T07:19:57.355Z,6.43
2023-02-09T07:22:25.803Z,6.40
2023-02-09T07:24:52.665Z,6.41
2023-02-09T07:27:20.095Z,6.42
2023-02-09T07:29:47.132Z,6.42
2023-02-09T07:32:14.024Z,6.43
2023-02-09T07:34:40.911Z,6.45
2023-02-09T07:37:08.209Z,6.49
2023-02-09T07:39:35.483Z,6.53
2023-02-09T07:42:02.525Z,6.58
2023-02-09T07:44:29.631Z,6.57
2023-02-09T07:46:56.626Z,6.56
2023-02-09T07:49:23.975Z,6.56
2023-02-09T07:51:51.331Z,6.57
2023-02-09T07:54:18.251Z,6.56
2023-02-09T07:56:45.203Z,6.60
2023-02-09T07:59:12.163Z,6.58
2023-02-09T08:01:39.272Z,6.60
2023-02-09T08:04:06.398Z,6.62
2023-02-09T08:06:41.901Z,6.64
2023-02-09T08:09:10.041Z,6.67
2023-02-09T08:11:40.555Z,6.70
2023-02-09T08:14:11.711Z,6.72
2023-02-09T08:16:39.085Z,6.75
2023-02-09T08:19:09.384Z,6.76
2023-02-09T08:21:38.718Z,6.77
2023-02-09T08:24:07.345Z,6.79
2023-02-09T08:26:35.482Z,6.85
2023-02-09T08:29:03.009Z,6.88
2023-02-09T08:31:30.457Z,6.93
2023-02-09T08:33:58.240Z,6.94
2023-02-09T08:36:25.360Z,6.93
2023-02-09T08:38:52.870Z,6.93
2023-02-09T08:41:20.145Z,6.95
2023-02-09T08:43:48.599Z,6.95
2023-02-09T08:46:16.110Z,6.93
2023-02-09T08:48:44.092Z,6.96
2023-02-09T08:51:13.564Z,7.02
2023-02-09T08:53:40.859Z,7.24
2023-02-09T08:56:09.182Z,7.36
2023-02-09T08:58:37.105Z,7.36
2023-02-09T09:01:05.898Z,7.36
2023-02-09T09:03:33.587Z,7.36
2023-02-09T09:06:01.992Z,7.35
2023-02-09T09:08:29.986Z,7.35
2023-02-09T09:10:57.188Z,7.34
2023-02-09T09:13:25.930Z,7.35
2023-02-09T09:15:54.596Z,7.36
2023-02-09T09:18:22.223Z,7.35
2023-02-09T09:20:49.739Z,7.32
2023-02-09T09:23:17.169Z,7.33
2023-02-09T09:25:45.495Z,7.36
2023-02-09T09:28:13.251Z,7.37
2023-02-09T09:30:40.335Z,7.39
2023-02-09T09:33:07.611Z,7.43
2023-02-09T09:35:34.625Z,7.45
2023-02-09T09:38:02.307Z,7.48
2023-02-09T09:40:32.541Z,7.52
2023-02-09T09:43:01.179Z,7.52
2023-02-09T09:45:29.538Z,7.52
2023-02-09T09:47:56.862Z,7.59
2023-02-09T09:50:26.684Z,7.65
2023-02-09T09:52:58.037Z,7.76
2023-02-09T09:55:26.593Z,7.86
2023-02-09T09:57:54.678Z,7.96
2023-02-09T10:00:24.838Z,8.02
2023-02-09T10:02:52.266Z,8.09
2023-02-09T10:05:21.343Z,8.18
2023-02-09T10:07:55.185Z,8.28
2023-02-09T10:10:30.303Z,8.36
2023-02-09T10:12:59.484Z,8.44
2023-02-09T10:15:28.459Z,8.46
2023-02-09T10:17:56.209Z,8.47
2023-02-09T10:20:26.767Z,8.50
2023-02-09T10:22:53.799Z,8.55
2023-02-09T10:25:37.302Z,8.63
2023-02-09T10:28:06.823Z,8.63
2023-02-09T10:30:34.002Z,8.66
2023-02-09T10:33:02.693Z,8.68
2023-02-09T10:35:36.161Z,8.70
2023-02-09T10:38:03.733Z,8.75
2023-02-09T10:40:33.253Z,8.82
2023-02-09T10:43:03.139Z,8.88
2023-02-09T10:45:38.352Z,8.97
2023-02-09T10:48:08.770Z,9.05
2023-02-09T10:50:48.183Z,9.09
2023-02-09T10:53:20.760Z,9.18
2023-02-09T10:55:48.269Z,9.24
2023-02-09T10:58:22.089Z,9.29
2023-02-09T11:00:51.101Z,9.33
2023-02-09T11:03:20.040Z,9.37
2023-02-09T11:05:48.251Z,9.39
2023-02-09T11:08:19.421Z,9.41
2023-02-09T11:10:57.155Z,9.43
2023-02-09T11:13:25.533Z,9.40
2023-02-09T11:16:03.573Z,9.36
2023-02-09T11:18:33.744Z,9.36
2023-02-09T11:21:09.571Z,9.32
2023-02-09T11:23:42.252Z,9.37
2023-02-09T11:26:12.322Z,9.37
2023-02-09T11:28:44.424Z,9.37
2023-02-09T11:31:14.886Z,9.42
2023-02-09T11:33:45.409Z,9.48
2023-02-09T11:36:17.789Z,9.51
2023-02-09T11:38:49.488Z,9.55
2023-02-09T11:41:24.251Z,9.57
2023-02-09T11:43:53.202Z,9.62
2023-02-09T11:46:22.635Z,9.67
2023-02-09T11:48:55.450Z,9.72
2023-02-09T11:51:23.912Z,9.80
2023-02-09T11:53:56.141Z,9.87
2023-02-09T11:56:24.508Z,9.96
2023-02-09T11:58:55.309Z,10.01
2023-02-09T12:01:25.342Z,10.03
2023-02-09T12:03:55.637Z,10.06
2023-02-09T12:06:23.655Z,10.11
2023-02-09T12:08:56.852Z,10.13
2023-02-09T12:11:26.939Z,10.19
2023-02-09T12:13:57.003Z,10.23
2023-02-09T12:16:27.143Z,10.28
2023-02-09T12:18:55.834Z,10.35
2023-02-09T12:21:25.979Z,10.42
2023-02-09T12:23:53.305Z,10.49
2023-02-09T12:26:20.947Z,10.61
2023-02-09T12:28:49.898Z,10.72
2023-02-09T12:31:20.976Z,10.81
2023-02-09T12:33:48.454Z,10.88
2023-02-09T12:36:16.965Z,10.93
2023-02-09T12:38:53.498Z,10.98
2023-02-09T12:41:23.210Z,11.01
2023-02-09T12:43:51.252Z,11.02
2023-02-09T12:46:20.491Z,11.06
2023-02-09T12:48:50.606Z,11.05
2023-02-09T12:51:21.163Z,11.03
2023-02-09T12:53:48.932Z,11.03
2023-02-09T12:56:16.456Z,11.00
2023-02-09T12:58:44.985Z,10.96
2023-02-09T13:01:13.366Z,10.89
2023-02-09T13:03:43.762Z,10.86
2023-02-09T13:06:14.176Z,10.83
2023-02-09T13:08:48.048Z,10.78
2023-02-09T13:11:19.585Z,10.78
2023-02-09T13:13:50.003Z,10.80
2023-02-09T13:16:20.240Z,10.77
2023-02-09T13:18:50.849Z,10.81
2023-02-09T13:21:21.336Z,10.78
2023-02-09T13:23:55.748Z,10.80
2023-02-09T13:26:24.472Z,10.81
2023-02-09T13:28:54.667Z,10.81
2023-02-09T13:31:24.908Z,10.87
2023-02-09T13:33:55.700Z,10.89
2023-02-09T13:36:25.910Z,10.92
2023-02-09T13:38:53.913Z,10.94
2023-02-09T13:41:25.138Z,10.95
2023-02-09T13:43:52.781Z,10.94
2023-02-09T13:46:23.060Z,10.96
2023-02-09T13:48:50.731Z,11.00
2023-02-09T13:51:21.184Z,11.07
2023-02-09T13:53:51.585Z,11.13
2023-02-09T13:56:18.859Z,11.19
2023-02-09T13:58:47.290Z,11.27
2023-02-09T14:01:16.294Z,11.37
2023-02-09T14:03:57.399Z,11.43
2023-02-09T14:06:28.224Z,11.49
2023-02-09T14:08:55.874Z,11.53
2023-02-09T14:11:41.165Z,11.61
2023-02-09T14:14:11.739Z,11.67
2023-02-09T14:16:53.091Z,11.70
2023-02-09T14:19:24.814Z,11.71
2023-02-09T14:21:53.097Z,11.69
2023-02-09T14:24:21.761Z,11.68
2023-02-09T14:26:51.732Z,11.64
2023-02-09T14:29:19.149Z,11.62
2023-02-09T14:31:48.026Z,11.61
2023-02-09T14:34:18.193Z,11.62
2023-02-09T14:36:51.652Z,11.62
2023-02-09T14:39:21.347Z,11.62
2023-02-09T14:41:51.430Z,11.61
2023-02-09T14:44:20.704Z,11.59
2023-02-09T14:46:48.866Z,11.61
2023-02-09T14:49:16.228Z,11.63
2023-02-09T14:51:43.601Z,11.66
2023-02-09T14:54:18.310Z,11.72
2023-02-09T14:56:45.637Z,11.71
2023-02-09T14:59:16.719Z,11.69
2023-02-09T15:01:43.907Z,11.67
2023-02-09T15:04:11.091Z,11.65
2023-02-09T15:06:38.685Z,11.63
2023-02-09T15:09:06.316Z,11.59
2023-02-09T15:11:42.259Z,11.56
2023-02-09T15:14:10.693Z,11.53
2023-02-09T15:16:38.100Z,11.52
2023-02-09T15:19:11.252Z,11.52
2023-02-09T15:21:38.499Z,11.48
2023-02-09T15:24:05.977Z,11.46
2023-02-09T15:26:34.894Z,11.46
2023-02-09T15:29:02.048Z,11.43
2023-02-09T15:31:29.300Z,11.41
2023-02-09T15:33:56.466Z,11.38
2023-02-09T15:36:24.276Z,11.35
2023-02-09T15:38:51.583Z,11.34
2023-02-09T15:41:21.825Z,11.29
2023-02-09T15:43:52.538Z,11.26
2023-02-09T15:46:23.183Z,11.22
2023-02-09T15:48:50.703Z,11.19
2023-02-09T15:51:17.972Z,11.17
2023-02-09T15:53:46.352Z,11.15
2023-02-09T15:56:15.315Z,11.11
2023-02-09T15:58:44.611Z,11.08
2023-02-09T16:01:13.778Z,11.06
2023-02-09T16:03:41.106Z,11.03
2023-02-09T16:06:13.180Z,10.99
2023-02-09T16:08:40.468Z,10.95
2023-02-09T16:11:12.786Z,10.90
2023-02-09T16:13:39.995Z,10.86
2023-02-09T16:16:16.675Z,10.80
2023-02-09T16:18:44.815Z,10.77
2023-02-09T16:21:17.169Z,10.75
2023-02-09T16:23:46.133Z,10.72
2023-02-09T16:26:13.496Z,10.69
2023-02-09T16:28:41.098Z,10.67
2023-02-09T16:31:10.307Z,10.63
2023-02-09T16:33:39.522Z,10.61
2023-02-09T16:36:13.402Z,10.58
2023-02-09T16:38:40.924Z,10.53
2023-02-09T16:41:30.931Z,10.49
2023-02-09T16:43:58.503Z,10.46
2023-02-09T16:46:25.656Z,10.42
2023-02-09T16:48:53.243Z,10.39
2023-02-09T16:51:21.169Z,10.35
2023-02-09T16:53:51.944Z,10.33
2023-02-09T16:56:19.955Z,10.33
2023-02-09T16:58:47.966Z,10.30
2023-02-09T17:01:18.121Z,10.28
2023-02-09T17:03:48.609Z,10.27
2023-02-09T17:06:17.716Z,10.25
2023-02-09T17:08:45.397Z,10.22
2023-02-09T17:11:16.912Z,10.20
2023-02-09T17:13:44.130Z,10.17
2023-02-09T17:16:18.388Z,10.16
2023-02-09T17:18:46.358Z,10.16
2023-02-09T17:21:17.076Z,10.15
2023-02-09T17:23:44.787Z,10.13
2023-02-09T17:26:13.307Z,10.09
2023-02-09T17:28:42.960Z,10.08
2023-02-09T17:31:15.913Z,10.05
2023-02-09T17:33:43.544Z,10.03
2023-02-09T17:36:29.587Z,10.01
2023-02-09T17:38:58.304Z,9.99
2023-02-09T17:41:28.619Z,9.98
2023-02-09T17:43:56.948Z,9.95
2023-02-09T17:46:24.958Z,9.93
2023-02-09T17:48:52.584Z,9.88
2023-02-09T17:51:21.883Z,9.87
2023-02-09T17:53:49.423Z,9.84
2023-02-09T17:56:17.008Z,9.81
2023-02-09T17:58:45.094Z,9.78
2023-02-09T18:01:23.675Z,9.76
2023-02-09T18:03:53.814Z,9.74
2023-02-09T18:06:23.264Z,9.72
2023-02-09T18:08:50.760Z,9.70
2023-02-09T18:11:18.049Z,9.69
2023-02-09T18:13:45.668Z,9.67
2023-02-09T18:16:13.947Z,9.66
2023-02-09T18:18:41.563Z,9.66
2023-02-09T18:21:13.313Z,9.63
2023-02-09T18:23:42.475Z,9.62
2023-02-09T18:26:09.952Z,9.60
2023-02-09T18:28:37.249Z,9.57
2023-02-09T18:31:06.789Z,9.56
2023-02-09T18:33:34.493Z,9.55
2023-02-09T18:36:02.768Z,9.51
2023-02-09T18:38:30.660Z,9.50
2023-02-09T18:40:57.698Z,9.47
2023-02-09T18:43:24.864Z,9.45
2023-02-09T18:45:52.273Z,9.44
2023-02-09T18:48:19.880Z,9.41
2023-02-09T18:50:47.233Z,9.42
2023-02-09T18:53:15.158Z,9.42
2023-02-09T18:55:42.507Z,9.40
2023-02-09T18:58:10.280Z,9.36
2023-02-09T19:00:37.971Z,9.34
2023-02-09T19:03:05.542Z,9.33
2023-02-09T19:05:34.919Z,9.30
2023-02-09T19:08:02.307Z,9.29
2023-02-09T19:10:33.376Z,9.28
2023-02-09T19:13:02.903Z,9.26
2023-02-09T19:15:30.549Z,9.23
2023-02-09T19:17:58.187Z,9.19
2023-02-09T19:20:27.883Z,9.15
2023-02-09T19:22:56.225Z,9.11
2023-02-09T19:25:25.342Z,9.08
2023-02-09T19:27:53.081Z,9.05
2023-02-09T19:30:25.205Z,9.03
2023-02-09T19:32:53.675Z,8.98
2023-02-09T19:35:23.119Z,8.97
2023-02-09T19:37:50.935Z,8.98
2023-02-09T19:40:21.815Z,8.96
2023-02-09T19:42:49.276Z,8.94
2023-02-09T19:45:16.671Z,8.93
2023-02-09T19:47:44.387Z,8.93
2023-02-09T19:50:12.208Z,8.91
2023-02-09T19:52:41.067Z,8.90
2023-02-09T19:55:08.667Z,8.86
2023-02-09T19:57:35.878Z,8.85
2023-02-09T20:00:05.978Z,8.82
2023-02-09T20:02:33.146Z,8.81
2023-02-09T20:05:00.209Z,8.79
2023-02-09T20:07:27.188Z,8.77
2023-02-09T20:09:54.139Z,8.74
2023-02-09T20:12:22.396Z,8.69
2023-02-09T20:14:49.734Z,8.66
2023-02-09T20:17:16.743Z,8.65
2023-02-09T20:19:43.845Z,8.60
2023-02-09T20:22:12.339Z,8.58
2023-02-09T20:24:39.332Z,8.57
2023-02-09T20:27:08.137Z,8.56
2023-02-09T20:29:35.432Z,8.56
2023-02-09T20:32:02.466Z,8.54
2023-02-09T20:34:29.527Z,8.54
2023-02-09T20:36:57.827Z,8.54
2023-02-09T20:39:24.803Z,8.53
2023-02-09T20:41:58.320Z,8.52
2023-02-09T20:44:31.407Z,8.51
2023-02-09T20:46:58.509Z,8.48
2023-02-09T20:49:29.871Z,8.46
2023-02-09T20:51:57.031Z,8.46
2023-02-09T20:54:24.340Z,8.43
2023-02-09T20:56:51.396Z,8.42
2023-02-09T20:59:18.318Z,8.40
2023-02-09T21:01:46.267Z,8.38
2023-02-09T21:04:13.500Z,8.37
2023-02-09T21:06:40.458Z,8.36
2023-02-09T21:09:08.733Z,8.35
2023-02-09T21:11:35.588Z,8.35
2023-02-09T21:14:02.994Z,8.34
2023-02-09T21:16:31.195Z,8.30
2023-02-09T21:18:58.923Z,8.28
2023-02-09T21:21:27.422Z,8.26
2023-02-09T21:23:54.550Z,8.25
2023-02-09T21:26:23.031Z,8.25
2023-02-09T21:28:52.265Z,8.25
2023-02-09T21:31:21.314Z,8.24
2023-02-09T21:33:48.740Z,8.23
2023-02-09T21:36:19.045Z,8.20
2023-02-09T21:38:45.995Z,8.17
2023-02-09T21:41:18.257Z,8.15
2023-02-09T21:43:47.257Z,8.14
2023-02-09T21:46:17.178Z,8.15
2023-02-09T21:48:44.170Z,8.14
2023-02-09T21:51:11.465Z,8.15
2023-02-09T21:53:43.690Z,8.14
2023-02-09T21:56:10.572Z,8.15
2023-02-09T21:58:37.406Z,8.12
2023-02-09T22:01:04.571Z,8.13
2023-02-09T22:03:31.600Z,8.15
2023-02-09T22:05:59.361Z,8.13
2023-02-09T22:08:26.965Z,8.11
2023-02-09T22:10:54.045Z,8.08
2023-02-09T22:13:20.946Z,8.06
2023-02-09T22:15:47.826Z,8.04
2023-02-09T22:18:14.787Z,8.03
2023-02-09T22:20:42.552Z,8.00
2023-02-09T22:23:09.751Z,7.98
2023-02-09T22:25:37.454Z,8.01
2023-02-09T22:28:05.006Z,8.02
2023-02-09T22:30:32.371Z,8.02
2023-02-09T22:32:59.451Z,8.01
2023-02-09T22:35:26.447Z,7.98
2023-02-09T22:37:53.417Z,7.97
2023-02-09T22:40:20.699Z,7.92
2023-02-09T22:42:47.816Z,7.87
2023-02-09T22:45:14.709Z,7.85
2023-02-09T22:47:41.628Z,7.84
2023-02-09T22:50:08.839Z,7.85
2023-02-09T22:52:35.745Z,7.80
2023-02-09T22:55:02.573Z,7.74
2023-02-09T22:57:29.357Z,7.70
2023-02-09T22:59:56.180Z,7.69
2023-02-09T23:02:23.994Z,7.72
2023-02-09T23:04:50.831Z,7.71
2023-02-09T23:07:17.763Z,7.77
2023-02-09T23:09:44.985Z,7.75
2023-02-09T23:12:11.845Z,7.70
2023-02-09T23:14:38.719Z,7.68
2023-02-09T23:17:07.313Z,7.65
2023-02-09T23:19:34.236Z,7.64
2023-02-09T23:22:01.082Z,7.64
2023-02-09T23:24:28.587Z,7.64
2023-02-09T23:26:55.565Z,7.67
2023-02-09T23:29:22.493Z,7.61
2023-02-09T23:31:49.664Z,7.57
2023-02-09T23:34:19.584Z,7.53
2023-02-09T23:36:46.884Z,7.47
2023-02-09T23:39:15.728Z,7.45
2023-02-09T23:41:42.553Z,7.46
2023-02-09T23:44:09.495Z,7.47
2023-02-09T23:46:36.485Z,7.45
2023-02-09T23:49:03.430Z,7.41
2023-02-09T23:51:32.057Z,7.38
2023-02-09T23:54:00.443Z,7.35
2023-02-09T23:56:27.932Z,7.32
2023-02-09T23:58:55.048Z,7.28
